sensor_id;sensor_type;location;lat;lon;timestamp;P1;durP1;ratioP1;P2;durP2;ratioP2
579;SDS011;276;48.392;9.950;2023-04-25T00:01:51;3.50;;;3.20;;
579;SDS011;276;48.392;9.950;2023-04-25T00:04:17;3.70;;;3.37;;
579;SDS011;276;48.392;9.950;2023-04-25T00:06:43;4.47;;;3.20;;
579;SDS011;276;48.392;9.950;2023-04-25T00:09:08;2.93;;;2.73;;
579;SDS011;276;48.392;9.950;2023-04-25T00:11:35;3.10;;;2.80;;
579;SDS011;276;48.392;9.950;2023-04-25T00:14:02;3.73;;;3.30;;
579;SDS011;276;48.392;9.950;2023-04-25T00:16:29;4.10;;;2.70;;
579;SDS011;276;48.392;9.950;2023-04-25T00:18:58;3.23;;;2.90;;
579;SDS011;276;48.392;9.950;2023-04-25T00:21:24;3.07;;;2.63;;
579;SDS011;276;48.392;9.950;2023-04-25T00:23:50;2.90;;;2.70;;
579;SDS011;276;48.392;9.950;2023-04-25T00:26:20;3.23;;;2.93;;
579;SDS011;276;48.392;9.950;2023-04-25T00:28:48;2.93;;;2.50;;
579;SDS011;276;48.392;9.950;2023-04-25T00:31:14;3.73;;;2.70;;
579;SDS011;276;48.392;9.950;2023-04-25T00:33:39;4.53;;;2.87;;
579;SDS011;276;48.392;9.950;2023-04-25T00:36:05;3.63;;;3.20;;
579;SDS011;276;48.392;9.950;2023-04-25T00:38:31;3.27;;;2.97;;
579;SDS011;276;48.392;9.950;2023-04-25T00:40:57;3.80;;;3.43;;
579;SDS011;276;48.392;9.950;2023-04-25T00:43:24;3.33;;;3.03;;
579;SDS011;276;48.392;9.950;2023-04-25T00:45:54;4.20;;;3.73;;
579;SDS011;276;48.392;9.950;2023-04-25T00:48:24;3.40;;;3.10;;
579;SDS011;276;48.392;9.950;2023-04-25T00:50:53;2.87;;;2.67;;
579;SDS011;276;48.392;9.950;2023-04-25T00:53:22;3.50;;;3.20;;
579;SDS011;276;48.392;9.950;2023-04-25T00:55:49;2.90;;;2.70;;
579;SDS011;276;48.392;9.950;2023-04-25T00:58:20;2.93;;;2.63;;
579;SDS011;276;48.392;9.950;2023-04-25T01:00:49;3.67;;;3.03;;
579;SDS011;276;48.392;9.950;2023-04-25T01:03:17;3.30;;;3.10;;
579;SDS011;276;48.392;9.950;2023-04-25T01:05:47;2.83;;;2.63;;
579;SDS011;276;48.392;9.950;2023-04-25T01:08:15;2.40;;;2.30;;
579;SDS011;276;48.392;9.950;2023-04-25T01:10:43;3.00;;;2.80;;
579;SDS011;276;48.392;9.950;2023-04-25T01:13:13;5.93;;;3.33;;
579;SDS011;276;48.392;9.950;2023-04-25T01:15:41;4.17;;;2.93;;
579;SDS011;276;48.392;9.950;2023-04-25T01:18:12;2.30;;;2.10;;
579;SDS011;276;48.392;9.950;2023-04-25T01:20:37;2.50;;;2.27;;
579;SDS011;276;48.392;9.950;2023-04-25T01:23:05;2.70;;;2.50;;
579;SDS011;276;48.392;9.950;2023-04-25T01:25:33;2.80;;;2.60;;
579;SDS011;276;48.392;9.950;2023-04-25T01:27:59;4.10;;;2.50;;
579;SDS011;276;48.392;9.950;2023-04-25T01:30:28;2.67;;;2.47;;
579;SDS011;276;48.392;9.950;2023-04-25T01:32:56;2.67;;;2.47;;
579;SDS011;276;48.392;9.950;2023-04-25T01:35:25;2.70;;;2.50;;
579;SDS011;276;48.392;9.950;2023-04-25T01:37:50;4.67;;;3.37;;
579;SDS011;276;48.392;9.950;2023-04-25T01:40:21;3.83;;;3.63;;
579;SDS011;276;48.392;9.950;2023-04-25T01:42:50;5.70;;;3.80;;
579;SDS011;276;48.392;9.950;2023-04-25T01:45:16;5.03;;;3.67;;
579;SDS011;276;48.392;9.950;2023-04-25T01:47:42;3.50;;;3.20;;
579;SDS011;276;48.392;9.950;2023-04-25T01:50:11;4.07;;;3.67;;
579;SDS011;276;48.392;9.950;2023-04-25T01:52:37;4.00;;;3.70;;
579;SDS011;276;48.392;9.950;2023-04-25T01:55:03;6.53;;;3.70;;
579;SDS011;276;48.392;9.950;2023-04-25T01:57:35;4.37;;;3.97;;
579;SDS011;276;48.392;9.950;2023-04-25T02:00:01;4.70;;;4.27;;
579;SDS011;276;48.392;9.950;2023-04-25T02:02:28;4.23;;;3.93;;
579;SDS011;276;48.392;9.950;2023-04-25T02:04:56;3.43;;;3.13;;
579;SDS011;276;48.392;9.950;2023-04-25T02:07:25;3.07;;;2.87;;
579;SDS011;276;48.392;9.950;2023-04-25T02:09:51;3.00;;;2.80;;
579;SDS011;276;48.392;9.950;2023-04-25T02:12:17;5.07;;;3.30;;
579;SDS011;276;48.392;9.950;2023-04-25T02:14:45;3.77;;;3.43;;
579;SDS011;276;48.392;9.950;2023-04-25T02:17:15;5.50;;;3.77;;
579;SDS011;276;48.392;9.950;2023-04-25T02:19:41;5.37;;;3.63;;
579;SDS011;276;48.392;9.950;2023-04-25T02:22:07;6.60;;;3.23;;
579;SDS011;276;48.392;9.950;2023-04-25T02:24:32;3.77;;;3.47;;
579;SDS011;276;48.392;9.950;2023-04-25T02:27:00;3.63;;;3.33;;
579;SDS011;276;48.392;9.950;2023-04-25T02:29:26;4.27;;;3.87;;
579;SDS011;276;48.392;9.950;2023-04-25T02:31:53;4.60;;;3.33;;
579;SDS011;276;48.392;9.950;2023-04-25T02:34:21;4.10;;;3.50;;
579;SDS011;276;48.392;9.950;2023-04-25T02:36:48;4.10;;;3.80;;
579;SDS011;276;48.392;9.950;2023-04-25T02:39:15;6.93;;;4.13;;
579;SDS011;276;48.392;9.950;2023-04-25T02:41:41;5.20;;;4.07;;
579;SDS011;276;48.392;9.950;2023-04-25T02:44:09;3.30;;;3.10;;
579;SDS011;276;48.392;9.950;2023-04-25T02:46:35;4.13;;;3.73;;
579;SDS011;276;48.392;9.950;2023-04-25T02:49:02;6.80;;;4.00;;
579;SDS011;276;48.392;9.950;2023-04-25T02:51:28;4.30;;;3.50;;
579;SDS011;276;48.392;9.950;2023-04-25T02:53:53;4.33;;;3.90;;
579;SDS011;276;48.392;9.950;2023-04-25T02:56:26;4.33;;;3.93;;
579;SDS011;276;48.392;9.950;2023-04-25T02:58:54;4.97;;;4.47;;
579;SDS011;276;48.392;9.950;2023-04-25T03:01:20;3.83;;;3.20;;
579;SDS011;276;48.392;9.950;2023-04-25T03:03:48;4.90;;;4.40;;
579;SDS011;276;48.392;9.950;2023-04-25T03:06:13;4.60;;;4.30;;
579;SDS011;276;48.392;9.950;2023-04-25T03:08:40;4.50;;;3.73;;
579;SDS011;276;48.392;9.950;2023-04-25T03:11:06;3.80;;;3.50;;
579;SDS011;276;48.392;9.950;2023-04-25T03:13:31;4.10;;;3.70;;
579;SDS011;276;48.392;9.950;2023-04-25T03:15:57;5.03;;;4.10;;
579;SDS011;276;48.392;9.950;2023-04-25T03:18:23;4.30;;;3.60;;
579;SDS011;276;48.392;9.950;2023-04-25T03:20:50;5.40;;;4.80;;
579;SDS011;276;48.392;9.950;2023-04-25T03:23:20;4.13;;;3.80;;
579;SDS011;276;48.392;9.950;2023-04-25T03:25:46;4.17;;;3.83;;
579;SDS011;276;48.392;9.950;2023-04-25T03:28:12;5.37;;;4.97;;
579;SDS011;276;48.392;9.950;2023-04-25T03:30:40;4.60;;;4.20;;
579;SDS011;276;48.392;9.950;2023-04-25T03:33:07;6.57;;;4.30;;
579;SDS011;276;48.392;9.950;2023-04-25T03:35:36;3.87;;;3.53;;
579;SDS011;276;48.392;9.950;2023-04-25T03:38:01;3.63;;;3.33;;
579;SDS011;276;48.392;9.950;2023-04-25T03:40:27;4.50;;;3.80;;
579;SDS011;276;48.392;9.950;2023-04-25T03:42:52;4.23;;;3.83;;
579;SDS011;276;48.392;9.950;2023-04-25T03:45:20;3.90;;;3.60;;
579;SDS011;276;48.392;9.950;2023-04-25T03:47:49;4.43;;;3.40;;
579;SDS011;276;48.392;9.950;2023-04-25T03:50:14;4.53;;;4.03;;
579;SDS011;276;48.392;9.950;2023-04-25T03:52:40;4.10;;;3.70;;
579;SDS011;276;48.392;9.950;2023-04-25T03:55:06;4.30;;;3.90;;
579;SDS011;276;48.392;9.950;2023-04-25T03:57:34;4.03;;;3.63;;
579;SDS011;276;48.392;9.950;2023-04-25T04:00:00;3.87;;;3.57;;
579;SDS011;276;48.392;9.950;2023-04-25T04:02:31;7.17;;;3.80;;
579;SDS011;276;48.392;9.950;2023-04-25T04:04:58;4.43;;;3.50;;
579;SDS011;276;48.392;9.950;2023-04-25T04:07:26;4.30;;;3.87;;
579;SDS011;276;48.392;9.950;2023-04-25T04:09:51;3.73;;;3.33;;
579;SDS011;276;48.392;9.950;2023-04-25T04:12:19;8.20;;;7.40;;
579;SDS011;276;48.392;9.950;2023-04-25T04:14:47;7.07;;;6.37;;
579;SDS011;276;48.392;9.950;2023-04-25T04:17:15;5.20;;;4.80;;
579;SDS011;276;48.392;9.950;2023-04-25T04:19:41;4.77;;;4.33;;
579;SDS011;276;48.392;9.950;2023-04-25T04:22:09;3.67;;;3.37;;
579;SDS011;276;48.392;9.950;2023-04-25T04:24:35;4.20;;;3.80;;
579;SDS011;276;48.392;9.950;2023-04-25T04:27:00;6.10;;;4.17;;
579;SDS011;276;48.392;9.950;2023-04-25T04:29:29;4.60;;;4.20;;
579;SDS011;276;48.392;9.950;2023-04-25T04:31:54;4.50;;;4.17;;
579;SDS011;276;48.392;9.950;2023-04-25T04:34:20;4.37;;;4.07;;
579;SDS011;276;48.392;9.950;2023-04-25T04:36:48;5.00;;;4.53;;
579;SDS011;276;48.392;9.950;2023-04-25T04:39:16;4.93;;;4.10;;
579;SDS011;276;48.392;9.950;2023-04-25T04:41:41;4.00;;;3.60;;
579;SDS011;276;48.392;9.950;2023-04-25T04:44:12;3.03;;;2.83;;
579;SDS011;276;48.392;9.950;2023-04-25T04:46:40;4.20;;;3.60;;
579;SDS011;276;48.392;9.950;2023-04-25T04:49:12;4.20;;;3.90;;
579;SDS011;276;48.392;9.950;2023-04-25T04:51:38;5.60;;;4.10;;
579;SDS011;276;48.392;9.950;2023-04-25T04:54:05;4.63;;;3.77;;
579;SDS011;276;48.392;9.950;2023-04-25T04:56:35;4.10;;;3.80;;
579;SDS011;276;48.392;9.950;2023-04-25T04:59:01;4.33;;;3.93;;
579;SDS011;276;48.392;9.950;2023-04-25T05:01:29;4.67;;;4.27;;
579;SDS011;276;48.392;9.950;2023-04-25T05:03:57;6.47;;;5.90;;
579;SDS011;276;48.392;9.950;2023-04-25T05:06:26;4.70;;;4.30;;
579;SDS011;276;48.392;9.950;2023-04-25T05:08:56;4.63;;;4.23;;
579;SDS011;276;48.392;9.950;2023-04-25T05:11:25;5.60;;;4.30;;
579;SDS011;276;48.392;9.950;2023-04-25T05:13:53;8.83;;;4.60;;
579;SDS011;276;48.392;9.950;2023-04-25T05:16:19;4.37;;;4.00;;
579;SDS011;276;48.392;9.950;2023-04-25T05:18:49;5.87;;;4.30;;
579;SDS011;276;48.392;9.950;2023-04-25T05:21:15;4.57;;;4.17;;
579;SDS011;276;48.392;9.950;2023-04-25T05:23:45;3.90;;;3.60;;
579;SDS011;276;48.392;9.950;2023-04-25T05:26:13;3.90;;;3.13;;
579;SDS011;276;48.392;9.950;2023-04-25T05:28:39;6.10;;;4.00;;
579;SDS011;276;48.392;9.950;2023-04-25T05:31:06;5.43;;;4.33;;
579;SDS011;276;48.392;9.950;2023-04-25T05:33:32;5.40;;;4.90;;
579;SDS011;276;48.392;9.950;2023-04-25T05:36:00;4.73;;;4.33;;
579;SDS011;276;48.392;9.950;2023-04-25T05:38:28;4.17;;;3.77;;
579;SDS011;276;48.392;9.950;2023-04-25T05:40:54;6.10;;;5.00;;
579;SDS011;276;48.392;9.950;2023-04-25T05:43:20;3.77;;;3.47;;
579;SDS011;276;48.392;9.950;2023-04-25T05:45:46;3.70;;;3.40;;
579;SDS011;276;48.392;9.950;2023-04-25T05:48:12;4.00;;;3.60;;
579;SDS011;276;48.392;9.950;2023-04-25T05:50:40;4.90;;;3.10;;
579;SDS011;276;48.392;9.950;2023-04-25T05:53:08;3.67;;;3.37;;
579;SDS011;276;48.392;9.950;2023-04-25T05:55:36;3.83;;;3.40;;
579;SDS011;276;48.392;9.950;2023-04-25T05:58:01;4.33;;;3.37;;
579;SDS011;276;48.392;9.950;2023-04-25T06:00:27;4.13;;;3.10;;
579;SDS011;276;48.392;9.950;2023-04-25T06:02:56;6.93;;;2.67;;
579;SDS011;276;48.392;9.950;2023-04-25T06:05:21;3.47;;;3.17;;
579;SDS011;276;48.392;9.950;2023-04-25T06:07:47;2.80;;;2.60;;
579;SDS011;276;48.392;9.950;2023-04-25T06:10:12;4.23;;;3.67;;
579;SDS011;276;48.392;9.950;2023-04-25T06:12:40;4.43;;;3.80;;
579;SDS011;276;48.392;9.950;2023-04-25T06:15:11;4.33;;;3.53;;
579;SDS011;276;48.392;9.950;2023-04-25T06:17:36;3.10;;;2.90;;
579;SDS011;276;48.392;9.950;2023-04-25T06:20:02;3.70;;;3.40;;
579;SDS011;276;48.392;9.950;2023-04-25T06:22:29;3.03;;;2.83;;
579;SDS011;276;48.392;9.950;2023-04-25T06:24:54;3.80;;;3.33;;
579;SDS011;276;48.392;9.950;2023-04-25T06:27:22;3.73;;;3.20;;
579;SDS011;276;48.392;9.950;2023-04-25T06:29:47;4.07;;;3.77;;
579;SDS011;276;48.392;9.950;2023-04-25T06:32:13;3.30;;;3.03;;
579;SDS011;276;48.392;9.950;2023-04-25T06:34:39;2.90;;;2.70;;
579;SDS011;276;48.392;9.950;2023-04-25T06:37:04;3.63;;;3.13;;
579;SDS011;276;48.392;9.950;2023-04-25T06:39:30;2.70;;;2.43;;
579;SDS011;276;48.392;9.950;2023-04-25T06:41:58;3.07;;;2.77;;
579;SDS011;276;48.392;9.950;2023-04-25T06:44:24;3.07;;;2.80;;
579;SDS011;276;48.392;9.950;2023-04-25T06:46:51;3.30;;;2.80;;
579;SDS011;276;48.392;9.950;2023-04-25T06:49:16;3.23;;;2.23;;
579;SDS011;276;48.392;9.950;2023-04-25T06:51:44;6.40;;;3.40;;
579;SDS011;276;48.392;9.950;2023-04-25T06:54:10;3.77;;;2.87;;
579;SDS011;276;48.392;9.950;2023-04-25T06:56:38;4.60;;;3.50;;
579;SDS011;276;48.392;9.950;2023-04-25T06:59:08;3.73;;;3.40;;
579;SDS011;276;48.392;9.950;2023-04-25T07:01:34;2.90;;;2.70;;
579;SDS011;276;48.392;9.950;2023-04-25T07:04:00;3.33;;;3.03;;
579;SDS011;276;48.392;9.950;2023-04-25T07:06:26;6.30;;;3.90;;
579;SDS011;276;48.392;9.950;2023-04-25T07:08:52;4.37;;;3.13;;
579;SDS011;276;48.392;9.950;2023-04-25T07:11:21;3.17;;;2.87;;
579;SDS011;276;48.392;9.950;2023-04-25T07:13:51;3.10;;;2.80;;
579;SDS011;276;48.392;9.950;2023-04-25T07:16:17;5.03;;;2.57;;
579;SDS011;276;48.392;9.950;2023-04-25T07:18:42;4.40;;;2.50;;
579;SDS011;276;48.392;9.950;2023-04-25T07:21:10;3.43;;;2.33;;
579;SDS011;276;48.392;9.950;2023-04-25T07:23:36;3.40;;;2.87;;
579;SDS011;276;48.392;9.950;2023-04-25T07:26:04;4.57;;;2.77;;
579;SDS011;276;48.392;9.950;2023-04-25T07:28:30;3.20;;;2.90;;
579;SDS011;276;48.392;9.950;2023-04-25T07:30:56;4.20;;;3.00;;
579;SDS011;276;48.392;9.950;2023-04-25T07:33:23;4.53;;;3.03;;
579;SDS011;276;48.392;9.950;2023-04-25T07:35:51;3.30;;;2.53;;
579;SDS011;276;48.392;9.950;2023-04-25T07:38:17;10.10;;;5.60;;
579;SDS011;276;48.392;9.950;2023-04-25T07:40:47;5.33;;;3.97;;
579;SDS011;276;48.392;9.950;2023-04-25T07:43:14;4.53;;;3.80;;
579;SDS011;276;48.392;9.950;2023-04-25T07:45:42;5.30;;;3.57;;
579;SDS011;276;48.392;9.950;2023-04-25T07:48:11;4.70;;;3.77;;
579;SDS011;276;48.392;9.950;2023-04-25T07:50:41;4.17;;;3.30;;
579;SDS011;276;48.392;9.950;2023-04-25T07:53:10;4.77;;;4.37;;
579;SDS011;276;48.392;9.950;2023-04-25T07:55:36;4.47;;;3.53;;
579;SDS011;276;48.392;9.950;2023-04-25T07:58:04;3.57;;;3.27;;
579;SDS011;276;48.392;9.950;2023-04-25T08:00:33;4.20;;;3.80;;
579;SDS011;276;48.392;9.950;2023-04-25T08:03:02;5.63;;;4.20;;
579;SDS011;276;48.392;9.950;2023-04-25T08:05:27;4.03;;;3.10;;
579;SDS011;276;48.392;9.950;2023-04-25T08:07:53;3.63;;;3.27;;
579;SDS011;276;48.392;9.950;2023-04-25T08:10:22;3.93;;;3.30;;
579;SDS011;276;48.392;9.950;2023-04-25T08:12:50;5.20;;;3.10;;
579;SDS011;276;48.392;9.950;2023-04-25T08:15:18;3.93;;;3.27;;
579;SDS011;276;48.392;9.950;2023-04-25T08:17:43;6.00;;;3.07;;
579;SDS011;276;48.392;9.950;2023-04-25T08:20:09;2.83;;;2.60;;
579;SDS011;276;48.392;9.950;2023-04-25T08:22:40;5.73;;;2.80;;
579;SDS011;276;48.392;9.950;2023-04-25T08:25:08;3.70;;;3.40;;
579;SDS011;276;48.392;9.950;2023-04-25T08:27:36;4.17;;;3.13;;
579;SDS011;276;48.392;9.950;2023-04-25T08:30:02;2.97;;;2.70;;
579;SDS011;276;48.392;9.950;2023-04-25T08:32:28;3.73;;;3.43;;
579;SDS011;276;48.392;9.950;2023-04-25T08:34:57;4.90;;;2.80;;
579;SDS011;276;48.392;9.950;2023-04-25T08:37:24;5.37;;;3.37;;
579;SDS011;276;48.392;9.950;2023-04-25T08:39:50;3.67;;;2.97;;
579;SDS011;276;48.392;9.950;2023-04-25T08:42:19;4.07;;;3.77;;
579;SDS011;276;48.392;9.950;2023-04-25T08:44:48;3.43;;;3.13;;
579;SDS011;276;48.392;9.950;2023-04-25T08:47:15;8.40;;;3.70;;
579;SDS011;276;48.392;9.950;2023-04-25T08:49:42;3.27;;;2.97;;
579;SDS011;276;48.392;9.950;2023-04-25T08:52:11;2.90;;;2.70;;
579;SDS011;276;48.392;9.950;2023-04-25T08:54:38;5.50;;;3.60;;
579;SDS011;276;48.392;9.950;2023-04-25T08:57:09;4.03;;;3.00;;
579;SDS011;276;48.392;9.950;2023-04-25T08:59:35;4.03;;;3.17;;
579;SDS011;276;48.392;9.950;2023-04-25T09:02:03;8.33;;;3.20;;
579;SDS011;276;48.392;9.950;2023-04-25T09:04:30;4.87;;;3.03;;
579;SDS011;276;48.392;9.950;2023-04-25T09:06:56;3.70;;;2.90;;
579;SDS011;276;48.392;9.950;2023-04-25T09:09:24;2.50;;;2.30;;
579;SDS011;276;48.392;9.950;2023-04-25T09:11:52;5.13;;;2.47;;
579;SDS011;276;48.392;9.950;2023-04-25T09:14:22;3.40;;;2.77;;
579;SDS011;276;48.392;9.950;2023-04-25T09:19:23;3.37;;;3.07;;
579;SDS011;276;48.392;9.950;2023-04-25T09:21:50;4.80;;;2.60;;
579;SDS011;276;48.392;9.950;2023-04-25T09:24:34;3.07;;;2.50;;
579;SDS011;276;48.392;9.950;2023-04-25T09:27:09;3.33;;;2.83;;
579;SDS011;276;48.392;9.950;2023-04-25T09:29:36;3.73;;;2.80;;
579;SDS011;276;48.392;9.950;2023-04-25T09:32:10;3.60;;;2.30;;
579;SDS011;276;48.392;9.950;2023-04-25T09:34:45;2.73;;;2.37;;
579;SDS011;276;48.392;9.950;2023-04-25T09:37:18;2.90;;;2.67;;
579;SDS011;276;48.392;9.950;2023-04-25T09:39:47;2.27;;;2.00;;
579;SDS011;276;48.392;9.950;2023-04-25T09:42:17;2.50;;;2.30;;
579;SDS011;276;48.392;9.950;2023-04-25T09:44:43;2.67;;;2.47;;
579;SDS011;276;48.392;9.950;2023-04-25T09:47:13;3.20;;;2.07;;
579;SDS011;276;48.392;9.950;2023-04-25T09:49:41;6.33;;;2.57;;
579;SDS011;276;48.392;9.950;2023-04-25T09:52:07;1.77;;;1.67;;
579;SDS011;276;48.392;9.950;2023-04-25T09:54:34;1.90;;;1.80;;
579;SDS011;276;48.392;9.950;2023-04-25T09:57:19;3.23;;;2.00;;
579;SDS011;276;48.392;9.950;2023-04-25T10:02:17;3.20;;;2.90;;
579;SDS011;276;48.392;9.950;2023-04-25T10:04:47;2.50;;;2.30;;
579;SDS011;276;48.392;9.950;2023-04-25T10:07:19;2.60;;;2.40;;
579;SDS011;276;48.392;9.950;2023-04-25T10:09:49;2.97;;;2.30;;
579;SDS011;276;48.392;9.950;2023-04-25T10:12:20;2.60;;;2.40;;
579;SDS011;276;48.392;9.950;2023-04-25T10:14:46;2.60;;;2.40;;
579;SDS011;276;48.392;9.950;2023-04-25T10:17:13;2.47;;;2.30;;
579;SDS011;276;48.392;9.950;2023-04-25T10:19:39;2.90;;;2.33;;
579;SDS011;276;48.392;9.950;2023-04-25T10:24:38;1.90;;;1.80;;
579;SDS011;276;48.392;9.950;2023-04-25T10:27:06;1.77;;;1.67;;
579;SDS011;276;48.392;9.950;2023-04-25T10:29:35;1.90;;;1.80;;
579;SDS011;276;48.392;9.950;2023-04-25T10:32:03;5.20;;;2.40;;
579;SDS011;276;48.392;9.950;2023-04-25T10:34:39;1.63;;;1.53;;
579;SDS011;276;48.392;9.950;2023-04-25T10:37:08;2.87;;;1.67;;
579;SDS011;276;48.392;9.950;2023-04-25T10:39:35;1.63;;;1.53;;
579;SDS011;276;48.392;9.950;2023-04-25T10:42:02;1.47;;;1.10;;
579;SDS011;276;48.392;9.950;2023-04-25T10:44:31;1.60;;;1.43;;
579;SDS011;276;48.392;9.950;2023-04-25T10:47:00;2.10;;;1.30;;
579;SDS011;276;48.392;9.950;2023-04-25T10:52:12;2.87;;;1.30;;
579;SDS011;276;48.392;9.950;2023-04-25T10:57:26;1.47;;;1.30;;
579;SDS011;276;48.392;9.950;2023-04-25T10:59:56;1.93;;;1.10;;
579;SDS011;276;48.392;9.950;2023-04-25T11:02:26;1.00;;;0.90;;
579;SDS011;276;48.392;9.950;2023-04-25T11:04:53;1.23;;;1.13;;
579;SDS011;276;48.392;9.950;2023-04-25T11:07:38;1.17;;;1.10;;
579;SDS011;276;48.392;9.950;2023-04-25T11:10:16;1.67;;;1.37;;
579;SDS011;276;48.392;9.950;2023-04-25T11:12:43;1.23;;;1.13;;
579;SDS011;276;48.392;9.950;2023-04-25T11:15:11;0.90;;;0.90;;
579;SDS011;276;48.392;9.950;2023-04-25T11:17:37;1.00;;;0.80;;
579;SDS011;276;48.392;9.950;2023-04-25T11:20:05;3.50;;;1.17;;
579;SDS011;276;48.392;9.950;2023-04-25T11:22:36;0.90;;;0.90;;
579;SDS011;276;48.392;9.950;2023-04-25T11:25:06;0.83;;;0.83;;
579;SDS011;276;48.392;9.950;2023-04-25T11:27:32;1.77;;;1.00;;
579;SDS011;276;48.392;9.950;2023-04-25T11:30:12;1.77;;;1.10;;
579;SDS011;276;48.392;9.950;2023-04-25T11:32:39;1.60;;;1.50;;
579;SDS011;276;48.392;9.950;2023-04-25T11:35:06;1.73;;;1.63;;
579;SDS011;276;48.392;9.950;2023-04-25T11:37:32;1.83;;;1.73;;
579;SDS011;276;48.392;9.950;2023-04-25T11:39:59;1.50;;;1.40;;
579;SDS011;276;48.392;9.950;2023-04-25T11:42:25;1.60;;;1.47;;
579;SDS011;276;48.392;9.950;2023-04-25T11:44:51;3.17;;;1.60;;
579;SDS011;276;48.392;9.950;2023-04-25T11:47:19;1.47;;;1.37;;
579;SDS011;276;48.392;9.950;2023-04-25T11:49:45;2.17;;;2.00;;
579;SDS011;276;48.392;9.950;2023-04-25T11:52:10;2.00;;;1.90;;
579;SDS011;276;48.392;9.950;2023-04-25T11:54:37;3.90;;;2.03;;
579;SDS011;276;48.392;9.950;2023-04-25T11:57:03;1.73;;;1.63;;
579;SDS011;276;48.392;9.950;2023-04-25T11:59:29;1.60;;;1.50;;
579;SDS011;276;48.392;9.950;2023-04-25T12:01:55;1.70;;;1.60;;
579;SDS011;276;48.392;9.950;2023-04-25T12:04:23;1.93;;;1.83;;
579;SDS011;276;48.392;9.950;2023-04-25T12:06:51;2.47;;;2.27;;
579;SDS011;276;48.392;9.950;2023-04-25T12:09:28;1.50;;;1.40;;
579;SDS011;276;48.392;9.950;2023-04-25T12:11:56;1.60;;;1.47;;
579;SDS011;276;48.392;9.950;2023-04-25T12:14:29;1.87;;;1.77;;
579;SDS011;276;48.392;9.950;2023-04-25T12:17:00;2.00;;;1.90;;
579;SDS011;276;48.392;9.950;2023-04-25T12:19:31;1.50;;;1.40;;
579;SDS011;276;48.392;9.950;2023-04-25T12:21:59;1.77;;;1.67;;
579;SDS011;276;48.392;9.950;2023-04-25T12:24:33;1.60;;;1.50;;
579;SDS011;276;48.392;9.950;2023-04-25T12:27:00;1.77;;;1.67;;
579;SDS011;276;48.392;9.950;2023-04-25T12:29:28;2.00;;;1.70;;
579;SDS011;276;48.392;9.950;2023-04-25T12:31:58;1.53;;;1.43;;
579;SDS011;276;48.392;9.950;2023-04-25T12:34:24;1.30;;;1.30;;
579;SDS011;276;48.392;9.950;2023-04-25T12:36:51;1.83;;;1.73;;
579;SDS011;276;48.392;9.950;2023-04-25T12:39:18;2.03;;;1.53;;
579;SDS011;276;48.392;9.950;2023-04-25T12:41:48;1.43;;;1.33;;
579;SDS011;276;48.392;9.950;2023-04-25T12:44:19;1.20;;;1.10;;
579;SDS011;276;48.392;9.950;2023-04-25T12:46:47;1.23;;;1.17;;
579;SDS011;276;48.392;9.950;2023-04-25T12:49:13;1.10;;;1.00;;
579;SDS011;276;48.392;9.950;2023-04-25T12:51:39;0.77;;;0.77;;
579;SDS011;276;48.392;9.950;2023-04-25T12:54:08;0.60;;;0.47;;
579;SDS011;276;48.392;9.950;2023-04-25T12:56:36;0.60;;;0.60;;
579;SDS011;276;48.392;9.950;2023-04-25T12:59:04;0.50;;;0.40;;
579;SDS011;276;48.392;9.950;2023-04-25T13:01:32;0.90;;;0.70;;
579;SDS011;276;48.392;9.950;2023-04-25T13:03:58;0.80;;;0.60;;
579;SDS011;276;48.392;9.950;2023-04-25T13:06:26;0.50;;;0.50;;
579;SDS011;276;48.392;9.950;2023-04-25T13:08:52;0.60;;;0.60;;
579;SDS011;276;48.392;9.950;2023-04-25T13:11:20;0.77;;;0.77;;
579;SDS011;276;48.392;9.950;2023-04-25T13:13:45;0.50;;;0.40;;
579;SDS011;276;48.392;9.950;2023-04-25T13:16:11;0.70;;;0.70;;
579;SDS011;276;48.392;9.950;2023-04-25T13:18:40;0.40;;;0.40;;
579;SDS011;276;48.392;9.950;2023-04-25T13:21:06;0.80;;;0.80;;
579;SDS011;276;48.392;9.950;2023-04-25T13:23:31;0.80;;;0.70;;
579;SDS011;276;48.392;9.950;2023-04-25T13:25:59;0.50;;;0.50;;
579;SDS011;276;48.392;9.950;2023-04-25T13:28:30;0.93;;;0.80;;
579;SDS011;276;48.392;9.950;2023-04-25T13:30:55;0.60;;;0.60;;
579;SDS011;276;48.392;9.950;2023-04-25T13:33:21;0.70;;;0.70;;
579;SDS011;276;48.392;9.950;2023-04-25T13:35:47;0.70;;;0.67;;
579;SDS011;276;48.392;9.950;2023-04-25T13:38:23;0.70;;;0.70;;
579;SDS011;276;48.392;9.950;2023-04-25T13:40:52;1.30;;;0.57;;
579;SDS011;276;48.392;9.950;2023-04-25T13:43:21;1.43;;;0.80;;
579;SDS011;276;48.392;9.950;2023-04-25T13:45:47;0.70;;;0.67;;
579;SDS011;276;48.392;9.950;2023-04-25T13:48:18;0.53;;;0.50;;
579;SDS011;276;48.392;9.950;2023-04-25T13:50:44;0.70;;;0.70;;
579;SDS011;276;48.392;9.950;2023-04-25T13:53:10;1.27;;;0.50;;
579;SDS011;276;48.392;9.950;2023-04-25T13:55:36;0.63;;;0.63;;
579;SDS011;276;48.392;9.950;2023-04-25T13:58:03;0.83;;;0.83;;
579;SDS011;276;48.392;9.950;2023-04-25T14:00:33;0.70;;;0.70;;
579;SDS011;276;48.392;9.950;2023-04-25T14:03:02;1.37;;;1.27;;
579;SDS011;276;48.392;9.950;2023-04-25T14:05:29;1.23;;;1.13;;
579;SDS011;276;48.392;9.950;2023-04-25T14:07:59;0.97;;;0.97;;
579;SDS011;276;48.392;9.950;2023-04-25T14:10:25;1.03;;;0.93;;
579;SDS011;276;48.392;9.950;2023-04-25T14:12:51;1.20;;;1.10;;
579;SDS011;276;48.392;9.950;2023-04-25T14:15:16;1.17;;;0.97;;
579;SDS011;276;48.392;9.950;2023-04-25T14:17:42;1.30;;;1.20;;
579;SDS011;276;48.392;9.950;2023-04-25T14:20:08;1.30;;;1.20;;
579;SDS011;276;48.392;9.950;2023-04-25T14:22:35;1.40;;;1.30;;
579;SDS011;276;48.392;9.950;2023-04-25T14:25:01;1.03;;;1.00;;
579;SDS011;276;48.392;9.950;2023-04-25T14:27:28;1.10;;;1.10;;
579;SDS011;276;48.392;9.950;2023-04-25T14:29:53;1.20;;;1.10;;
579;SDS011;276;48.392;9.950;2023-04-25T14:32:22;1.43;;;1.33;;
579;SDS011;276;48.392;9.950;2023-04-25T14:34:52;1.20;;;1.10;;
579;SDS011;276;48.392;9.950;2023-04-25T14:37:20;1.53;;;1.00;;
579;SDS011;276;48.392;9.950;2023-04-25T14:39:47;1.20;;;1.10;;
579;SDS011;276;48.392;9.950;2023-04-25T14:42:13;0.73;;;0.70;;
579;SDS011;276;48.392;9.950;2023-04-25T14:44:41;1.10;;;1.00;;
579;SDS011;276;48.392;9.950;2023-04-25T14:47:06;1.03;;;1.03;;
579;SDS011;276;48.392;9.950;2023-04-25T14:49:34;1.00;;;1.00;;
579;SDS011;276;48.392;9.950;2023-04-25T14:52:00;1.37;;;1.27;;
579;SDS011;276;48.392;9.950;2023-04-25T14:54:26;1.30;;;1.20;;
579;SDS011;276;48.392;9.950;2023-04-25T14:56:53;1.10;;;1.10;;
579;SDS011;276;48.392;9.950;2023-04-25T14:59:19;1.57;;;1.43;;
579;SDS011;276;48.392;9.950;2023-04-25T15:01:45;1.63;;;1.53;;
579;SDS011;276;48.392;9.950;2023-04-25T15:04:11;2.13;;;2.03;;
579;SDS011;276;48.392;9.950;2023-04-25T15:06:37;2.17;;;2.07;;
579;SDS011;276;48.392;9.950;2023-04-25T15:09:05;1.77;;;1.67;;
579;SDS011;276;48.392;9.950;2023-04-25T15:11:31;1.70;;;1.60;;
579;SDS011;276;48.392;9.950;2023-04-25T15:13:59;2.50;;;2.00;;
579;SDS011;276;48.392;9.950;2023-04-25T15:16:29;2.77;;;2.57;;
579;SDS011;276;48.392;9.950;2023-04-25T15:18:55;2.07;;;1.97;;
579;SDS011;276;48.392;9.950;2023-04-25T15:21:23;2.00;;;1.90;;
579;SDS011;276;48.392;9.950;2023-04-25T15:23:52;2.70;;;2.50;;
579;SDS011;276;48.392;9.950;2023-04-25T15:26:20;5.77;;;5.27;;
579;SDS011;276;48.392;9.950;2023-04-25T15:28:46;6.67;;;5.97;;
579;SDS011;276;48.392;9.950;2023-04-25T15:31:14;5.40;;;3.80;;
579;SDS011;276;48.392;9.950;2023-04-25T15:33:39;3.67;;;3.00;;
579;SDS011;276;48.392;9.950;2023-04-25T15:36:05;3.60;;;2.63;;
579;SDS011;276;48.392;9.950;2023-04-25T15:38:35;2.70;;;2.50;;
579;SDS011;276;48.392;9.950;2023-04-25T15:41:00;6.20;;;2.60;;
579;SDS011;276;48.392;9.950;2023-04-25T15:43:28;2.80;;;2.60;;
579;SDS011;276;48.392;9.950;2023-04-25T15:46:02;2.83;;;2.63;;
579;SDS011;276;48.392;9.950;2023-04-25T15:48:27;2.53;;;2.33;;
579;SDS011;276;48.392;9.950;2023-04-25T15:50:56;2.63;;;2.43;;
579;SDS011;276;48.392;9.950;2023-04-25T15:53:21;2.93;;;2.70;;
579;SDS011;276;48.392;9.950;2023-04-25T15:55:47;2.73;;;2.43;;
579;SDS011;276;48.392;9.950;2023-04-25T15:58:12;2.63;;;2.43;;
579;SDS011;276;48.392;9.950;2023-04-25T16:00:38;2.60;;;2.40;;